createdAt,value
2022-10-30T00:00:41.801Z,3.73
2022-10-30T00:03:12.066Z,4.13
2022-10-30T00:05:42.152Z,4.30
2022-10-30T00:08:10.997Z,4.33
2022-10-30T00:10:39.083Z,3.47
2022-10-30T00:13:07.199Z,4.07
2022-10-30T00:15:35.583Z,4.27
2022-10-30T00:18:05.274Z,4.00
2022-10-30T00:20:33.361Z,4.20
2022-10-30T00:23:01.649Z,3.87
2022-10-30T00:25:30.141Z,3.83
2022-10-30T00:27:58.496Z,4.00
2022-10-30T00:30:26.583Z,3.53
2022-10-30T00:32:54.766Z,3.67
2022-10-30T00:35:24.361Z,3.73
2022-10-30T00:37:52.740Z,3.53
2022-10-30T00:40:21.275Z,4.20
2022-10-30T00:42:49.339Z,3.43
2022-10-30T00:45:17.962Z,3.37
2022-10-30T00:47:47.587Z,3.57
2022-10-30T00:50:17.311Z,3.67
2022-10-30T00:52:49.056Z,3.83
2022-10-30T00:55:18.578Z,4.10
2022-10-30T00:57:46.646Z,4.27
2022-10-30T01:00:15.327Z,3.83
2022-10-30T01:02:45.368Z,3.70
2022-10-30T01:05:13.838Z,3.70
2022-10-30T01:07:41.920Z,3.90
2022-10-30T01:10:11.638Z,3.83
2022-10-30T01:12:39.721Z,3.53
2022-10-30T01:15:08.880Z,3.60
2022-10-30T01:18:03.753Z,3.33
2022-10-30T01:20:50.239Z,3.93
2022-10-30T01:23:25.092Z,4.00
2022-10-30T01:25:59.542Z,3.67
2022-10-30T01:28:37.127Z,4.03
2022-10-30T01:31:12.575Z,3.40
2022-10-30T01:33:46.996Z,3.73
2022-10-30T01:36:17.931Z,3.63
2022-10-30T01:38:48.412Z,4.00
2022-10-30T01:41:17.861Z,3.53
2022-10-30T01:43:46.039Z,4.03
2022-10-30T01:46:24.837Z,4.20
2022-10-30T01:49:12.039Z,3.20
2022-10-30T01:51:44.666Z,4.00
2022-10-30T01:54:19.066Z,3.23
2022-10-30T01:56:52.568Z,4.60
2022-10-30T01:59:21.886Z,3.60
2022-10-30T02:01:50.036Z,3.77
2022-10-30T02:04:18.472Z,3.40
2022-10-30T02:06:46.846Z,3.30
2022-10-30T02:09:16.364Z,3.57
2022-10-30T02:11:44.751Z,3.57
2022-10-30T02:14:14.207Z,3.20
2022-10-30T02:16:44.443Z,4.33
2022-10-30T02:19:12.504Z,3.90
2022-10-30T02:21:44.710Z,3.83
2022-10-30T02:24:12.766Z,3.60
2022-10-30T02:26:40.814Z,4.27
2022-10-30T02:29:09.535Z,4.47
2022-10-30T02:31:37.894Z,3.80
2022-10-30T02:34:05.969Z,3.40
2022-10-30T02:36:39.363Z,3.50
2022-10-30T02:39:08.813Z,3.67
2022-10-30T02:41:36.924Z,3.43
2022-10-30T02:44:05.291Z,4.17
2022-10-30T02:46:33.396Z,3.13
2022-10-30T02:49:01.452Z,3.40
2022-10-30T02:51:29.838Z,3.90
2022-10-30T02:53:58.234Z,3.93
2022-10-30T02:56:28.035Z,3.37
2022-10-30T02:58:56.695Z,3.23
2022-10-30T03:01:24.881Z,3.60
2022-10-30T03:03:53.054Z,3.90
2022-10-30T03:06:21.416Z,3.80
2022-10-30T03:08:49.785Z,3.73
2022-10-30T03:11:18.654Z,3.23
2022-10-30T03:13:48.619Z,3.30
2022-10-30T03:16:17.654Z,3.60
2022-10-30T03:18:45.793Z,4.07
2022-10-30T03:21:15.383Z,3.90
2022-10-30T03:23:43.757Z,3.67
2022-10-30T03:26:12.169Z,3.53
2022-10-30T03:28:45.404Z,4.07
2022-10-30T03:31:15.626Z,3.67
2022-10-30T03:33:43.914Z,3.70
2022-10-30T03:36:12.731Z,3.77
2022-10-30T03:38:41.130Z,3.30
2022-10-30T03:41:09.422Z,3.30
2022-10-30T03:43:37.806Z,3.63
2022-10-30T03:46:06.055Z,4.00
2022-10-30T03:48:35.510Z,3.97
2022-10-30T03:51:03.572Z,3.73
2022-10-30T03:53:31.952Z,3.90
2022-10-30T03:56:00.555Z,3.23
2022-10-30T03:58:28.883Z,3.30
2022-10-30T04:00:57.068Z,3.20
2022-10-30T04:03:25.230Z,4.10
2022-10-30T04:05:55.819Z,3.47
2022-10-30T04:08:24.200Z,3.80
2022-10-30T04:10:52.339Z,3.80
2022-10-30T04:13:21.254Z,3.77
2022-10-30T04:15:57.172Z,3.10
2022-10-30T04:18:26.269Z,3.40
2022-10-30T04:20:55.825Z,3.67
2022-10-30T04:23:24.160Z,3.43
2022-10-30T04:25:52.254Z,3.60
2022-10-30T04:28:21.331Z,4.03
2022-10-30T04:30:49.448Z,3.80
2022-10-30T04:33:17.827Z,3.70
2022-10-30T04:35:45.895Z,3.17
2022-10-30T04:38:15.883Z,3.60
2022-10-30T04:40:44.511Z,4.20
2022-10-30T04:43:34.075Z,3.73
2022-10-30T04:46:05.815Z,4.13
2022-10-30T04:48:36.235Z,3.97
2022-10-30T04:51:04.615Z,3.60
2022-10-30T04:53:34.097Z,3.80
2022-10-30T04:56:02.173Z,3.90
2022-10-30T04:58:30.551Z,4.17
2022-10-30T05:01:03.109Z,3.67
2022-10-30T05:03:31.867Z,3.87
2022-10-30T05:06:01.148Z,3.30
2022-10-30T05:08:29.564Z,3.80
2022-10-30T05:10:59.117Z,3.50
2022-10-30T05:13:27.476Z,3.20
2022-10-30T05:15:57.482Z,3.67
2022-10-30T05:18:25.626Z,3.13
2022-10-30T05:20:54.002Z,3.60
2022-10-30T05:23:22.365Z,3.33
2022-10-30T05:25:50.425Z,3.00
2022-10-30T05:28:20.168Z,3.27
2022-10-30T05:30:48.529Z,2.73
2022-10-30T05:33:18.128Z,2.80
2022-10-30T05:35:46.246Z,2.93
2022-10-30T05:38:14.694Z,2.80
2022-10-30T05:40:43.054Z,2.80
2022-10-30T05:43:11.466Z,3.40
2022-10-30T05:45:40.941Z,3.27
2022-10-30T05:48:09.492Z,3.30
2022-10-30T05:50:39.821Z,2.40
2022-10-30T05:53:08.220Z,2.90
2022-10-30T05:55:36.619Z,3.00
2022-10-30T05:58:05.515Z,2.77
2022-10-30T06:00:34.746Z,2.70
2022-10-30T06:03:04.708Z,2.93
2022-10-30T06:05:33.395Z,2.90
2022-10-30T06:08:01.785Z,2.43
2022-10-30T06:10:29.861Z,2.67
2022-10-30T06:13:00.059Z,2.77
2022-10-30T06:15:28.457Z,2.87
2022-10-30T06:17:57.144Z,3.00
2022-10-30T06:20:27.494Z,2.60
2022-10-30T06:22:56.329Z,2.73
2022-10-30T06:25:24.733Z,3.00
2022-10-30T06:27:53.121Z,3.23
2022-10-30T06:30:21.748Z,2.77
2022-10-30T06:32:50.157Z,2.63
2022-10-30T06:35:18.371Z,2.33
2022-10-30T06:37:51.651Z,2.87
2022-10-30T06:40:19.998Z,2.90
2022-10-30T06:42:52.299Z,2.70
2022-10-30T06:45:20.956Z,3.17
2022-10-30T06:47:51.618Z,2.80
2022-10-30T06:50:20.542Z,2.87
2022-10-30T06:52:49.494Z,2.77
2022-10-30T06:55:19.381Z,2.57
2022-10-30T06:57:47.753Z,2.93
2022-10-30T07:00:16.382Z,2.30
2022-10-30T07:02:44.743Z,2.80
2022-10-30T07:05:13.140Z,2.77
2022-10-30T07:07:41.575Z,2.50
2022-10-30T07:10:10.364Z,2.47
2022-10-30T07:12:40.131Z,2.43
2022-10-30T07:15:09.983Z,2.70
2022-10-30T07:17:38.336Z,2.60
2022-10-30T07:20:07.402Z,2.80
2022-10-30T07:22:35.781Z,2.90
2022-10-30T07:25:04.167Z,3.00
2022-10-30T07:27:32.545Z,2.63
2022-10-30T07:30:01.992Z,2.87
2022-10-30T07:32:30.394Z,3.20
2022-10-30T07:35:03.889Z,2.73
2022-10-30T07:37:32.269Z,2.50
2022-10-30T07:40:00.650Z,2.63
2022-10-30T07:42:29.025Z,2.67
2022-10-30T07:44:57.465Z,2.47
2022-10-30T07:47:27.265Z,2.80
2022-10-30T07:49:55.690Z,2.53
2022-10-30T07:52:23.793Z,2.30
2022-10-30T07:54:52.177Z,3.00
2022-10-30T07:57:20.539Z,2.70
2022-10-30T08:02:22.296Z,2.70
2022-10-30T08:04:51.902Z,2.57
2022-10-30T08:07:20.814Z,3.23
2022-10-30T08:09:51.934Z,2.57
2022-10-30T08:12:20.009Z,3.03
2022-10-30T08:14:49.274Z,2.33
2022-10-30T08:17:17.653Z,2.50
2022-10-30T08:19:46.052Z,2.80
2022-10-30T08:22:15.804Z,2.10
2022-10-30T08:24:44.836Z,2.50
2022-10-30T08:27:13.201Z,2.50
2022-10-30T08:29:41.841Z,2.60
2022-10-30T08:32:10.227Z,2.80
2022-10-30T08:34:38.320Z,2.63
2022-10-30T08:37:07.947Z,2.60
2022-10-30T08:39:37.757Z,2.43
2022-10-30T08:42:06.171Z,2.17
2022-10-30T08:44:34.933Z,2.50
2022-10-30T08:47:03.283Z,2.80
2022-10-30T08:49:31.665Z,2.40
2022-10-30T08:52:00.093Z,2.50
2022-10-30T08:54:28.491Z,2.53
2022-10-30T08:56:58.228Z,2.80
2022-10-30T08:59:26.644Z,2.50
2022-10-30T09:01:55.133Z,3.20
2022-10-30T09:04:23.628Z,2.73
2022-10-30T09:06:52.001Z,2.50
2022-10-30T09:09:21.693Z,2.70
2022-10-30T09:11:50.076Z,2.27
2022-10-30T09:14:19.540Z,2.70
2022-10-30T09:16:47.898Z,2.40
2022-10-30T09:19:18.905Z,2.50
2022-10-30T09:21:47.523Z,2.53
2022-10-30T09:24:15.914Z,2.07
2022-10-30T09:26:44.294Z,2.93
2022-10-30T09:29:12.666Z,2.93
2022-10-30T09:31:42.180Z,2.57
2022-10-30T09:34:10.575Z,2.90
2022-10-30T09:36:40.086Z,2.47
2022-10-30T09:39:08.494Z,2.33
2022-10-30T09:41:50.184Z,2.60
2022-10-30T09:44:24.281Z,2.17
2022-10-30T09:47:02.347Z,2.67
2022-10-30T09:49:52.564Z,2.93
2022-10-30T09:52:27.963Z,2.60
2022-10-30T09:55:01.995Z,2.83
2022-10-30T09:57:58.181Z,2.87
2022-10-30T10:00:28.843Z,2.40
2022-10-30T10:03:05.305Z,2.50
2022-10-30T10:05:36.645Z,2.70
2022-10-30T10:08:05.930Z,3.13
2022-10-30T10:10:36.575Z,2.27
2022-10-30T10:13:05.259Z,2.77
2022-10-30T10:15:38.018Z,2.60
2022-10-30T10:18:08.886Z,2.97
2022-10-30T10:20:38.117Z,2.50
2022-10-30T10:23:07.158Z,2.73
2022-10-30T10:25:35.537Z,2.80
2022-10-30T10:28:07.539Z,2.80
2022-10-30T10:30:40.468Z,2.80
2022-10-30T10:33:31.769Z,2.70
2022-10-30T10:36:06.859Z,2.80
2022-10-30T10:38:42.907Z,3.17
2022-10-30T10:41:14.884Z,3.07
2022-10-30T10:43:45.755Z,2.53
2022-10-30T10:46:24.676Z,2.47
2022-10-30T10:49:02.955Z,2.40
2022-10-30T10:51:32.101Z,3.10
2022-10-30T10:54:00.846Z,2.90
2022-10-30T10:56:31.040Z,2.60
2022-10-30T10:58:59.895Z,2.70
2022-10-30T11:01:31.401Z,2.60
2022-10-30T11:04:02.089Z,2.80
2022-10-30T11:06:31.240Z,2.77
2022-10-30T11:09:01.548Z,2.67
2022-10-30T11:11:29.640Z,3.00
2022-10-30T11:13:57.747Z,3.13
2022-10-30T11:16:28.941Z,2.77
2022-10-30T11:18:57.747Z,2.70
2022-10-30T11:21:27.748Z,2.90
2022-10-30T11:23:56.129Z,2.80
2022-10-30T11:26:32.606Z,3.03
2022-10-30T11:29:01.794Z,3.00
2022-10-30T11:31:34.850Z,3.10
2022-10-30T11:34:16.593Z,3.40
2022-10-30T11:36:46.168Z,3.00
2022-10-30T11:39:19.381Z,2.83
2022-10-30T11:41:51.886Z,2.90
2022-10-30T11:44:23.007Z,3.13
2022-10-30T11:46:51.112Z,3.33
2022-10-30T11:49:32.590Z,2.90
2022-10-30T11:52:02.110Z,3.30
2022-10-30T11:54:30.199Z,3.13
2022-10-30T11:57:03.831Z,3.00
2022-10-30T11:59:32.202Z,2.80
2022-10-30T12:02:01.792Z,3.20
2022-10-30T12:04:32.612Z,3.23
2022-10-30T12:07:19.163Z,3.13
2022-10-30T12:10:06.170Z,2.90
2022-10-30T12:12:35.235Z,3.03
2022-10-30T12:15:11.339Z,3.10
2022-10-30T12:17:39.771Z,3.00
2022-10-30T12:20:08.844Z,2.90
2022-10-30T12:22:38.276Z,3.00
2022-10-30T12:25:08.591Z,3.20
2022-10-30T12:27:38.435Z,3.13
2022-10-30T12:30:10.285Z,3.47
2022-10-30T12:32:45.293Z,2.97
2022-10-30T12:35:28.751Z,3.10
2022-10-30T12:37:59.950Z,2.97
2022-10-30T12:40:29.943Z,2.80
2022-10-30T12:43:01.358Z,3.40
2022-10-30T12:45:35.926Z,3.27
2022-10-30T12:48:09.087Z,2.90
2022-10-30T12:50:38.822Z,2.93
2022-10-30T12:53:09.976Z,3.00
2022-10-30T12:55:39.596Z,3.50
2022-10-30T12:58:12.001Z,3.03
2022-10-30T13:00:42.746Z,4.07
2022-10-30T13:03:23.471Z,3.40
2022-10-30T13:05:52.656Z,3.00
2022-10-30T13:08:25.831Z,3.20
2022-10-30T13:10:55.232Z,3.47
2022-10-30T13:13:24.451Z,3.10
2022-10-30T13:15:53.213Z,3.27
2022-10-30T13:18:22.069Z,3.10
2022-10-30T13:21:20.835Z,3.27
2022-10-30T13:23:53.293Z,3.87
2022-10-30T13:26:25.715Z,3.30
2022-10-30T13:28:55.626Z,3.33
2022-10-30T13:31:28.820Z,2.97
2022-10-30T13:34:01.801Z,3.00
2022-10-30T13:36:34.044Z,3.17
2022-10-30T13:39:08.623Z,3.40
2022-10-30T13:41:39.934Z,3.43
2022-10-30T13:44:14.144Z,3.23
2022-10-30T13:46:52.501Z,3.00
2022-10-30T13:49:30.416Z,3.27
2022-10-30T13:52:01.934Z,3.50
2022-10-30T13:54:32.611Z,3.10
2022-10-30T13:57:03.200Z,3.23
2022-10-30T13:59:42.322Z,3.17
2022-10-30T14:02:15.934Z,3.90
2022-10-30T14:04:46.470Z,3.10
2022-10-30T14:07:23.445Z,3.47
2022-10-30T14:09:57.607Z,3.00
2022-10-30T14:12:50.419Z,3.30
2022-10-30T14:15:29.624Z,3.30
2022-10-30T14:18:26.600Z,3.53
2022-10-30T14:20:54.992Z,3.30
2022-10-30T14:23:31.534Z,3.70
2022-10-30T14:26:16.442Z,3.00
2022-10-30T14:28:45.420Z,4.23
2022-10-30T14:31:17.677Z,3.80
2022-10-30T14:33:52.262Z,3.50
2022-10-30T14:36:22.124Z,4.07
2022-10-30T14:39:27.230Z,3.20
2022-10-30T14:42:01.690Z,3.70
2022-10-30T14:45:02.272Z,4.07
2022-10-30T14:47:48.929Z,3.37
2022-10-30T14:50:33.392Z,3.80
2022-10-30T14:53:13.993Z,3.37
2022-10-30T14:55:51.581Z,3.63
2022-10-30T14:58:24.536Z,3.27
2022-10-30T15:00:55.152Z,3.77
2022-10-30T15:03:34.628Z,3.43
2022-10-30T15:06:04.553Z,3.77
2022-10-30T15:08:40.468Z,3.73
2022-10-30T15:11:19.867Z,3.60
2022-10-30T15:13:50.125Z,3.50
2022-10-30T15:16:18.942Z,3.60
2022-10-30T15:18:48.373Z,3.20
2022-10-30T15:21:21.313Z,3.50
2022-10-30T15:23:49.700Z,3.20
2022-10-30T15:26:23.059Z,3.43
2022-10-30T15:28:52.695Z,3.57
2022-10-30T15:31:23.035Z,3.20
2022-10-30T15:33:51.393Z,3.43
2022-10-30T15:36:20.030Z,3.50
2022-10-30T15:39:07.300Z,3.10
2022-10-30T15:41:37.023Z,3.60
2022-10-30T15:44:06.735Z,3.57
2022-10-30T15:46:35.181Z,3.37
2022-10-30T15:49:04.633Z,2.87
2022-10-30T15:51:34.328Z,3.60
2022-10-30T15:54:03.520Z,3.70
2022-10-30T15:56:33.899Z,3.57
2022-10-30T15:59:03.025Z,3.70
2022-10-30T16:01:33.840Z,3.70
2022-10-30T16:04:02.030Z,3.30
2022-10-30T16:06:31.122Z,3.80
2022-10-30T16:08:59.491Z,3.47
2022-10-30T16:11:27.664Z,3.50
2022-10-30T16:13:55.754Z,3.10
2022-10-30T16:16:26.014Z,2.97
2022-10-30T16:18:55.755Z,3.37
2022-10-30T16:21:24.659Z,3.60
2022-10-30T16:24:00.925Z,3.70
2022-10-30T16:26:32.745Z,3.53
2022-10-30T16:29:03.044Z,3.70
2022-10-30T16:31:31.995Z,3.27
2022-10-30T16:34:01.712Z,3.60
2022-10-30T16:36:29.903Z,3.50
2022-10-30T16:38:57.995Z,3.33
2022-10-30T16:41:27.256Z,3.60
2022-10-30T16:44:17.698Z,3.30
2022-10-30T16:46:48.542Z,3.63
2022-10-30T16:49:18.911Z,3.90
2022-10-30T16:51:46.995Z,3.80
2022-10-30T16:54:25.955Z,3.33
2022-10-30T16:56:55.457Z,3.33
2022-10-30T16:59:28.037Z,3.40
2022-10-30T17:01:57.525Z,3.27
2022-10-30T17:04:27.377Z,3.63
2022-10-30T17:07:05.581Z,4.00
2022-10-30T17:09:37.042Z,3.87
2022-10-30T17:12:13.728Z,3.30
2022-10-30T17:14:53.876Z,3.40
2022-10-30T17:17:28.386Z,3.43
2022-10-30T17:20:00.889Z,3.70
2022-10-30T17:22:29.017Z,3.57
2022-10-30T17:24:57.106Z,3.50
2022-10-30T17:27:34.879Z,3.50
2022-10-30T17:30:02.958Z,3.17
2022-10-30T17:32:42.654Z,4.10
2022-10-30T17:35:16.032Z,3.20
2022-10-30T17:37:44.099Z,3.37
2022-10-30T17:40:12.591Z,3.83
2022-10-30T17:42:40.679Z,3.80
2022-10-30T17:45:11.093Z,3.40
2022-10-30T17:47:39.162Z,3.00
2022-10-30T17:50:07.860Z,3.47
2022-10-30T17:52:37.350Z,3.40
2022-10-30T17:55:09.273Z,3.50
2022-10-30T17:57:37.650Z,3.30
2022-10-30T18:00:06.475Z,4.07
2022-10-30T18:02:41.713Z,3.20
2022-10-30T18:05:18.828Z,3.20
2022-10-30T18:10:21.557Z,3.30
2022-10-30T18:12:49.611Z,3.70
2022-10-30T18:15:25.680Z,3.47
2022-10-30T18:17:54.058Z,3.27
2022-10-30T18:20:22.449Z,3.13
2022-10-30T18:22:51.926Z,3.33
2022-10-30T18:25:22.031Z,3.20
2022-10-30T18:27:50.423Z,3.43
2022-10-30T18:30:18.919Z,3.20
2022-10-30T18:32:47.092Z,3.10
2022-10-30T18:35:17.228Z,3.20
2022-10-30T18:37:45.291Z,3.63
2022-10-30T18:40:16.192Z,4.27
2022-10-30T18:42:45.342Z,3.20
2022-10-30T18:45:24.070Z,3.90
2022-10-30T18:47:52.273Z,3.80
2022-10-30T18:50:23.056Z,3.47
2022-10-30T18:52:51.329Z,3.67
2022-10-30T18:55:22.377Z,3.50
2022-10-30T18:57:50.922Z,3.77
2022-10-30T19:00:19.991Z,2.90
2022-10-30T19:02:52.285Z,3.43
2022-10-30T19:05:26.553Z,3.60
2022-10-30T19:07:54.684Z,3.63
2022-10-30T19:10:24.415Z,3.37
2022-10-30T19:13:11.623Z,3.50
2022-10-30T19:15:41.751Z,2.90
2022-10-30T19:18:09.819Z,3.17
2022-10-30T19:21:02.772Z,3.50
2022-10-30T19:23:28.714Z,3.73
2022-10-30T19:25:58.197Z,3.00
2022-10-30T19:28:26.486Z,3.50
2022-10-30T19:30:54.913Z,3.90
2022-10-30T19:33:23.981Z,3.20
2022-10-30T19:35:55.416Z,3.40
2022-10-30T19:38:23.586Z,2.90
2022-10-30T19:40:52.030Z,3.37
2022-10-30T19:43:23.590Z,3.03
2022-10-30T19:45:55.683Z,4.20
2022-10-30T19:48:55.467Z,3.43
2022-10-30T19:51:12.572Z,3.30
2022-10-30T19:53:41.007Z,3.20
2022-10-30T19:56:11.026Z,3.70
2022-10-30T19:58:40.453Z,3.60
2022-10-30T20:01:08.553Z,3.20
2022-10-30T20:03:36.663Z,3.57
2022-10-30T20:06:04.906Z,3.33
2022-10-30T20:08:32.971Z,3.10
2022-10-30T20:11:04.241Z,3.30
2022-10-30T20:13:33.499Z,3.30
2022-10-30T20:16:05.079Z,3.20
2022-10-30T20:18:34.857Z,3.60
2022-10-30T20:21:04.400Z,3.37
2022-10-30T20:23:32.466Z,3.53
2022-10-30T20:26:02.137Z,3.17
2022-10-30T20:28:31.167Z,3.80
2022-10-30T20:30:59.328Z,3.83
2022-10-30T20:33:28.772Z,3.50
2022-10-30T20:35:56.846Z,3.30
2022-10-30T20:38:26.216Z,3.00
2022-10-30T20:40:54.810Z,3.10
2022-10-30T20:43:30.047Z,3.57
2022-10-30T20:45:58.893Z,4.07
2022-10-30T20:48:28.902Z,3.10
2022-10-30T20:50:57.467Z,3.60
2022-10-30T20:53:25.872Z,3.50
2022-10-30T20:55:53.956Z,3.97
2022-10-30T20:58:22.329Z,3.60
2022-10-30T21:00:50.552Z,3.83
2022-10-30T21:03:22.280Z,3.77
2022-10-30T21:05:55.973Z,3.40
2022-10-30T21:08:24.376Z,3.50
2022-10-30T21:10:52.748Z,3.83
2022-10-30T21:13:21.122Z,3.63
2022-10-30T21:15:51.323Z,3.77
2022-10-30T21:18:19.882Z,3.23
2022-10-30T21:20:47.956Z,3.20
2022-10-30T21:23:17.394Z,3.57
2022-10-30T21:25:45.771Z,3.63
2022-10-30T21:28:13.834Z,3.60
2022-10-30T21:30:42.219Z,3.20
2022-10-30T21:33:10.631Z,3.60
2022-10-30T21:35:38.722Z,3.73
2022-10-30T21:38:06.783Z,3.63
2022-10-30T21:40:36.283Z,3.67
2022-10-30T21:43:04.820Z,3.37
2022-10-30T21:45:34.319Z,3.90
2022-10-30T21:48:02.359Z,3.83
2022-10-30T21:50:30.709Z,3.80
2022-10-30T21:52:59.376Z,3.40
2022-10-30T21:55:27.629Z,3.70
2022-10-30T21:57:57.295Z,3.33
2022-10-30T22:00:25.552Z,3.40
2022-10-30T22:02:58.334Z,4.10
2022-10-30T22:05:26.732Z,3.67
2022-10-30T22:07:54.858Z,3.70
2022-10-30T22:10:24.081Z,3.70
2022-10-30T22:12:52.443Z,3.70
2022-10-30T22:15:21.915Z,3.93
2022-10-30T22:17:50.569Z,4.03
2022-10-30T22:20:18.788Z,3.70
2022-10-30T22:22:47.155Z,3.80
2022-10-30T22:25:15.368Z,3.87
2022-10-30T22:27:43.443Z,3.80
2022-10-30T22:30:12.479Z,4.20
2022-10-30T22:32:41.930Z,3.77
2022-10-30T22:35:10.580Z,4.20
2022-10-30T22:37:38.636Z,4.40
2022-10-30T22:40:07.653Z,4.70
2022-10-30T22:42:36.475Z,4.47
2022-10-30T22:45:04.846Z,4.30
2022-10-30T22:47:32.932Z,4.20
2022-10-30T22:50:02.386Z,3.60
2022-10-30T22:52:30.742Z,4.13
2022-10-30T22:54:59.121Z,4.53
2022-10-30T22:57:27.188Z,4.50
2022-10-30T22:59:55.575Z,4.03
2022-10-30T23:02:23.678Z,4.73
2022-10-30T23:04:52.045Z,3.87
2022-10-30T23:07:21.505Z,4.43
2022-10-30T23:09:49.882Z,4.37
2022-10-30T23:12:18.254Z,4.20
2022-10-30T23:14:46.616Z,4.57
2022-10-30T23:17:14.708Z,3.93
2022-10-30T23:19:43.063Z,4.40
2022-10-30T23:22:11.433Z,4.40
2022-10-30T23:24:40.862Z,4.70
2022-10-30T23:27:08.936Z,4.83
2022-10-30T23:29:37.325Z,4.33
2022-10-30T23:32:05.829Z,4.60
2022-10-30T23:34:33.869Z,4.80
2022-10-30T23:37:02.248Z,4.60
2022-10-30T23:39:30.591Z,4.50
2022-10-30T23:42:00.036Z,4.80
2022-10-30T23:44:28.116Z,4.47
2022-10-30T23:46:56.488Z,4.97
2022-10-30T23:49:24.869Z,4.10
2022-10-30T23:51:52.967Z,4.23
2022-10-30T23:54:21.045Z,5.17
2022-10-30T23:56:49.203Z,5.33
2022-10-30T23:59:18.636Z,4.60
